WetterOnline ( http://www.wetteronline.de )

Wetter aktuell Altmark

Aktuelles Wetter: Gardelegen (48m)

6-stündlich | Neueste Meldungen
Ortszeit Temperatur Wetter
Fr, 27.04. 2:00 4.9° C wolkenlos
Do, 26.04. 20:00 8.2° C bedeckt
Do, 26.04. 14:00 11.7° C bewölkt
Do, 26.04. 8:00 9.1° C bedeckt
Do, 26.04. 2:00 6.1° C wolkenlos
Mi, 25.04. 20:00 11.3° C bewölkt
Mi, 25.04. 14:00 15.9° C wolkig
Mi, 25.04. 8:00 13.7° C bewölkt
Ortszeit Temperatur Wetter
Fr, 27.04. 4:30 3.7° C fast wolkenlos
Fr, 27.04. 4:20 3.7° C fast wolkenlos
Fr, 27.04. 4:10 4.0° C fast wolkenlos
Fr, 27.04. 4:00 3.9° C wolkig
Fr, 27.04. 3:50 3.9° C wolkig
Fr, 27.04. 3:40 3.8° C wolkig
Fr, 27.04. 3:30 4.1° C wolkig
Fr, 27.04. 3:00 4.3° C leicht bewölkt
Fr, 27.04. 2:30 4.3° C wolkenlos
Fr, 27.04. 2:00 4.9° C wolkenlos
Fr, 27.04. 1:30 5.8° C wolkenlos
Ortszeit Relative Feuchte Sichtweite
Fr, 27.04. 2:00 99% 13 km
Do, 26.04. 20:00 84% 70 km
Do, 26.04. 14:00 69% 70 km
Do, 26.04. 8:00 82% 17 km
Do, 26.04. 2:00 93% 22 km
Mi, 25.04. 20:00 68% 70 km
Mi, 25.04. 14:00 51% 19 km
Mi, 25.04. 8:00 79% 21 km
Ortszeit Relative Feuchte Sichtweite
Fr, 27.04. 4:30 100% 6 km
Fr, 27.04. 4:20 100% -
Fr, 27.04. 4:10 100% -
Fr, 27.04. 4:00 100% 6 km
Fr, 27.04. 3:50 100% -
Fr, 27.04. 3:40 100% -
Fr, 27.04. 3:30 100% 10 km
Fr, 27.04. 3:00 100% 8 km
Fr, 27.04. 2:30 100% 5.0 km
Fr, 27.04. 2:00 99% 13 km
Fr, 27.04. 1:30 98% 17 km
Ortszeit Niederschlagsmenge Niederschlagsart
Fr, 27.04. 2:00 0.4 l/m2 in 6 Std. Regen
Do, 26.04. 20:00 5 l/m2 in 12 Std. Regenschauer
Do, 26.04. 14:00 3 l/m2 in 6 Std. Regen
Do, 26.04. 8:00 0.0 l/m2 in 12 Std. -
Do, 26.04. 2:00 0.0 l/m2 in 6 Std. -
Mi, 25.04. 20:00 0.1 l/m2 in 12 Std. Sprühregen
Mi, 25.04. 14:00 0.1 l/m2 in 6 Std. Regen
Mi, 25.04. 8:00 0.1 l/m2 in 12 Std. Regen
Ortszeit Niederschlagsmenge Niederschlagsart
Fr, 27.04. 4:30 0.0 l/m2 in 1 Std. -
Fr, 27.04. 4:20 keine Meldung -
Fr, 27.04. 4:10 keine Meldung -
Fr, 27.04. 4:00 0.0 l/m2 in 1 Std. -
Fr, 27.04. 3:50 keine Meldung -
Fr, 27.04. 3:40 keine Meldung -
Fr, 27.04. 3:30 0.0 l/m2 in 1 Std. -
Fr, 27.04. 3:00 0.0 l/m2 in 1 Std. -
Fr, 27.04. 2:30 0.0 l/m2 in 1 Std. -
Fr, 27.04. 2:00 0.0 l/m2 in 1 Std. Regen
Fr, 27.04. 1:30 0.0 l/m2 in 1 Std. -
Ortszeit Stärke Spitze Richtung
km/h Bft. km/h Grad Sektor
Fr, 27.04. 2:00 6 1 28 190° S
Do, 26.04. 20:00 11 2 50 260° W
Do, 26.04. 14:00 18 3 43 270° W
Do, 26.04. 8:00 13 3 24 230° SW
Do, 26.04. 2:00 7 2 18 180° S
Mi, 25.04. 20:00 11 2 63 280° W
Mi, 25.04. 14:00 29 5 65 280° W
Mi, 25.04. 8:00 11 2 22 200° S
Ortszeit Stärke Spitze Richtung
km/h Bft. km/h Grad Sektor
Fr, 27.04. 4:30 6 1 7 210° SW
Fr, 27.04. 4:20 6 1 - 210° SW
Fr, 27.04. 4:10 6 1 - 190° S
Fr, 27.04. 4:00 6 1 6 200° S
Fr, 27.04. 3:50 6 1 - 200° S
Fr, 27.04. 3:40 4 1 - 200° S
Fr, 27.04. 3:30 4 1 7 210° SW
Fr, 27.04. 3:00 4 1 7 200° S
Fr, 27.04. 2:30 4 1 7 220° SW
Fr, 27.04. 2:00 6 1 11 190° S
Fr, 27.04. 1:30 7 2 11 180° S
Ortszeit Untergrenze Bedeckung Gattung
total tief tief mittel hoch
Fr, 27.04. 2:00 - 0/8 0/8 - - -
Do, 26.04. 20:00 480 m 8/8 8/8 - - -
Do, 26.04. 14:00 870 m 7/8 7/8 - - -
Do, 26.04. 8:00 1020 m 8/8 8/8 - - -
Do, 26.04. 2:00 - 0/8 0/8 - - -
Mi, 25.04. 20:00 1080 m 7/8 7/8 - - -
Mi, 25.04. 14:00 1470 m 6/8 6/8 - - -
Mi, 25.04. 8:00 1140 m 7/8 7/8 - - -
Ortszeit Bedeckungsgrad in Achtel und Wolkenuntergrenze
Fr, 27.04. 4:30 1(9000m)
Fr, 27.04. 4:20 1(9000m)
Fr, 27.04. 4:10 2(9000m)
Fr, 27.04. 4:00 7(9000m)
Fr, 27.04. 3:50 7(9000m)
Fr, 27.04. 3:40 8(9000m)
Fr, 27.04. 3:30 7(9000m)
Fr, 27.04. 3:00 5(9000m)
Fr, 27.04. 2:30 1(8700m)
Fr, 27.04. 2:00 keine Wolken
Fr, 27.04. 1:30 keine Wolken
Ortszeit Luftdruck NN (hPa) Tendenz (hPa in 3 Std.)
Fr, 27.04. 2:00 1017 + 0,2
Do, 26.04. 20:00 1016 + 1,2
Do, 26.04. 14:00 1014 + 0,7
Do, 26.04. 8:00 1011 + 0,1
Do, 26.04. 2:00 1012 + 0,2
Mi, 25.04. 20:00 1011 + 0,6
Mi, 25.04. 14:00 1007 + 2,3
Mi, 25.04. 8:00 1005 - 1,6
Ortszeit Luftdruck NN (hPa) Tendenz (hPa in 3 Std.)
Fr, 27.04. 4:30 1017 - 0,1
Fr, 27.04. 4:20 1017 keine Meldung
Fr, 27.04. 4:10 1017 keine Meldung
Fr, 27.04. 4:00 1017 - 0,2
Fr, 27.04. 3:50 1017 keine Meldung
Fr, 27.04. 3:40 1017 keine Meldung
Fr, 27.04. 3:30 1017 - 0,1
Fr, 27.04. 3:00 1017 + 0,1
Fr, 27.04. 2:30 1017 - 0,2
Fr, 27.04. 2:00 1017 + 0,2
Fr, 27.04. 1:30 1017 + 0,2
Ortszeit Schneehöhe (cm)
Fr, 27.04. 2:00 -
Do, 26.04. 20:00 -
Do, 26.04. 14:00 -
Do, 26.04. 8:00 -
Do, 26.04. 2:00 -
Mi, 25.04. 20:00 -
Mi, 25.04. 14:00 -
Mi, 25.04. 8:00 -
Ortszeit Schneehöhe (cm)
Fr, 27.04. 4:30 -
Fr, 27.04. 4:20 -
Fr, 27.04. 4:10 -
Fr, 27.04. 4:00 -
Fr, 27.04. 3:50 -
Fr, 27.04. 3:40 -
Fr, 27.04. 3:30 -
Fr, 27.04. 3:00 -
Fr, 27.04. 2:30 -
Fr, 27.04. 2:00 -
Fr, 27.04. 1:30 -
Link zu dieser Seite / Seite empfehlen

Das Wetter in ...